createdAt,value
2023-03-07T00:04:58.508Z,16.45
2023-03-07T00:10:00.129Z,16.83
2023-03-07T00:15:01.849Z,16.75
2023-03-07T00:20:08.741Z,15.07
2023-03-07T00:25:10.997Z,16.70
2023-03-07T00:30:12.698Z,15.98
2023-03-07T00:35:14.661Z,18.10
2023-03-07T00:40:16.381Z,17.23
2023-03-07T00:45:17.999Z,15.73
2023-03-07T00:50:19.667Z,15.23
2023-03-07T00:55:21.349Z,18.60
2023-03-07T01:00:22.966Z,16.65
2023-03-07T01:05:24.978Z,15.88
2023-03-07T01:10:28.191Z,17.48
2023-03-07T01:15:30.503Z,19.35
2023-03-07T01:20:33.822Z,17.92
2023-03-07T01:25:40.663Z,16.75
2023-03-07T01:30:43.010Z,16.90
2023-03-07T01:35:44.897Z,16.50
2023-03-07T01:40:46.619Z,17.15
2023-03-07T01:45:48.492Z,16.80
2023-03-07T01:50:51.765Z,17.02
2023-03-07T01:55:53.776Z,17.52
2023-03-07T02:00:56.015Z,18.73
2023-03-07T02:06:01.350Z,15.30
2023-03-07T02:11:03.983Z,17.08
2023-03-07T02:16:07.704Z,15.88
2023-03-07T02:21:19.097Z,17.48
2023-03-07T02:26:32.592Z,17.10
2023-03-07T02:31:34.487Z,14.35
2023-03-07T02:36:37.320Z,17.55
2023-03-07T02:41:56.219Z,15.35
2023-03-07T02:47:09.015Z,15.10
2023-03-07T02:52:11.081Z,15.98
2023-03-07T02:57:12.974Z,13.52
2023-03-07T03:02:14.668Z,16.70
2023-03-07T03:07:16.364Z,14.80
2023-03-07T03:12:18.150Z,14.18
2023-03-07T03:17:20.238Z,13.80
2023-03-07T03:22:22.412Z,15.70
2023-03-07T03:27:25.908Z,13.95
2023-03-07T03:32:28.000Z,13.10
2023-03-07T03:37:29.650Z,14.48
2023-03-07T03:42:31.382Z,14.68
2023-03-07T03:47:34.773Z,13.93
2023-03-07T03:52:36.841Z,13.95
2023-03-07T03:57:38.928Z,13.38
2023-03-07T04:02:41.515Z,13.82
2023-03-07T04:07:48.222Z,11.98
2023-03-07T04:12:49.943Z,14.10
2023-03-07T04:17:51.590Z,11.55
2023-03-07T04:22:53.259Z,11.52
2023-03-07T04:27:54.977Z,10.80
2023-03-07T04:32:56.774Z,12.73
2023-03-07T04:37:58.457Z,12.98
2023-03-07T04:43:00.481Z,11.25
2023-03-07T04:48:02.217Z,11.80
2023-03-07T04:53:04.417Z,11.93
2023-03-07T04:58:08.964Z,12.32
2023-03-07T05:03:12.391Z,12.00
2023-03-07T05:08:14.036Z,12.15
2023-03-07T05:13:16.007Z,11.27
2023-03-07T05:18:18.315Z,12.82
2023-03-07T05:23:20.496Z,11.32
2023-03-07T05:28:24.202Z,12.80
2023-03-07T05:33:26.874Z,12.90
2023-03-07T05:38:28.817Z,13.88
2023-03-07T05:43:30.670Z,14.23
2023-03-07T05:48:32.462Z,12.18
2023-03-07T05:53:34.165Z,10.80
2023-03-07T05:58:36.477Z,13.00
2023-03-07T06:03:38.552Z,12.68
2023-03-07T06:08:40.375Z,12.90
2023-03-07T06:13:42.327Z,12.57
2023-03-07T06:18:44.073Z,11.23
2023-03-07T06:23:46.097Z,12.63
2023-03-07T06:28:52.113Z,13.35
2023-03-07T06:33:56.067Z,12.65
2023-03-07T06:38:59.545Z,13.25
2023-03-07T06:44:01.484Z,11.02
2023-03-07T06:49:06.410Z,11.38
2023-03-07T06:54:08.961Z,11.00
2023-03-07T06:59:11.182Z,11.93
2023-03-07T07:04:12.838Z,11.93
2023-03-07T07:09:16.824Z,10.68
2023-03-07T07:14:19.245Z,13.63
2023-03-07T07:19:22.138Z,12.20
2023-03-07T07:24:24.252Z,11.18
2023-03-07T07:29:27.614Z,9.52
2023-03-07T07:34:29.789Z,10.50
2023-03-07T07:39:32.680Z,11.18
2023-03-07T07:44:34.797Z,10.82
2023-03-07T07:49:42.760Z,9.77
2023-03-07T07:54:44.757Z,9.27
2023-03-07T07:59:46.567Z,8.38
2023-03-07T08:04:48.246Z,8.60
2023-03-07T08:09:49.876Z,9.23
2023-03-07T08:14:51.489Z,8.95
2023-03-07T08:19:53.093Z,7.93
2023-03-07T08:24:54.676Z,8.85
2023-03-07T08:29:56.696Z,7.90
2023-03-07T08:34:58.361Z,8.52
2023-03-07T08:39:59.985Z,8.00
2023-03-07T08:45:02.468Z,7.93
2023-03-07T08:50:05.951Z,5.78
2023-03-07T08:55:08.273Z,5.97
2023-03-07T09:00:12.280Z,5.70
2023-03-07T09:05:13.922Z,6.10
2023-03-07T09:10:17.242Z,5.90
2023-03-07T09:15:18.964Z,5.70
2023-03-07T09:20:20.632Z,4.82
2023-03-07T09:25:22.936Z,5.65
2023-03-07T09:30:25.477Z,5.35
2023-03-07T09:35:27.109Z,4.55
2023-03-07T09:40:29.101Z,5.78
2023-03-07T09:45:59.294Z,6.10
2023-03-07T09:51:12.022Z,5.15
2023-03-07T09:56:22.022Z,6.60
2023-03-07T10:01:27.502Z,7.32
2023-03-07T10:06:55.240Z,6.00
2023-03-07T10:12:10.835Z,7.10
2023-03-07T10:17:24.311Z,5.93
2023-03-07T10:23:05.717Z,5.93
2023-03-07T10:28:24.209Z,7.30
2023-03-07T10:33:28.047Z,6.82
2023-03-07T10:38:56.931Z,5.63
2023-03-07T10:43:58.733Z,8.02
2023-03-07T10:49:09.494Z,6.47
2023-03-07T10:54:23.332Z,7.43
2023-03-07T10:59:25.383Z,6.53
2023-03-07T11:04:30.294Z,6.10
2023-03-07T11:09:34.669Z,4.78
2023-03-07T11:14:53.370Z,6.00
2023-03-07T11:19:56.715Z,5.40
2023-03-07T11:25:10.544Z,5.80
2023-03-07T11:30:44.294Z,6.10
2023-03-07T11:36:07.147Z,8.68
2023-03-07T11:41:23.056Z,6.68
2023-03-07T11:46:41.254Z,5.97
2023-03-07T11:52:22.048Z,4.75
2023-03-07T11:57:52.223Z,6.50
2023-03-07T12:03:05.894Z,7.72
2023-03-07T12:08:38.611Z,7.35
2023-03-07T12:14:15.795Z,6.30
2023-03-07T12:19:55.007Z,5.80
2023-03-07T12:25:40.177Z,6.90
2023-03-07T12:31:00.646Z,6.60
2023-03-07T12:36:08.754Z,7.97
2023-03-07T12:41:32.575Z,6.20
2023-03-07T12:47:31.082Z,6.15
2023-03-07T12:52:43.670Z,6.50
2023-03-07T12:57:56.020Z,6.68
2023-03-07T13:03:04.347Z,6.53
2023-03-07T13:08:07.695Z,6.10
2023-03-07T13:13:46.426Z,6.72
2023-03-07T13:18:48.065Z,5.57
2023-03-07T13:23:49.658Z,5.93
2023-03-07T13:28:52.118Z,5.95
2023-03-07T13:33:54.088Z,5.93
2023-03-07T13:38:55.703Z,7.00
2023-03-07T13:44:00.137Z,7.28
2023-03-07T13:49:01.980Z,6.70
2023-03-07T13:54:06.965Z,9.18
2023-03-07T13:59:14.615Z,7.40
2023-03-07T14:04:40.036Z,6.80
2023-03-07T14:09:48.556Z,6.15
2023-03-07T14:15:07.860Z,6.85
2023-03-07T14:20:53.146Z,7.22
2023-03-07T14:26:09.267Z,6.15
2023-03-07T14:31:23.213Z,5.43
2023-03-07T14:36:29.222Z,5.38
2023-03-07T14:41:39.568Z,7.78
2023-03-07T14:46:47.357Z,6.28
2023-03-07T14:51:49.132Z,7.47
2023-03-07T14:56:53.110Z,6.30
2023-03-07T15:01:55.468Z,6.25
2023-03-07T15:07:04.549Z,5.90
2023-03-07T15:12:15.676Z,6.22
2023-03-07T15:17:25.324Z,5.28
2023-03-07T15:22:33.922Z,5.47
2023-03-07T15:27:35.719Z,5.57
2023-03-07T15:32:40.408Z,5.95
2023-03-07T15:37:53.546Z,4.32
2023-03-07T15:43:15.559Z,5.22
2023-03-07T15:48:37.222Z,6.28
2023-03-07T15:53:41.471Z,4.82
2023-03-07T15:58:45.228Z,4.35
2023-03-07T16:03:51.424Z,4.55
2023-03-07T16:08:53.107Z,4.03
2023-03-07T16:13:54.827Z,4.78
2023-03-07T16:18:59.785Z,4.38
2023-03-07T16:24:01.395Z,5.15
2023-03-07T16:29:04.026Z,4.28
2023-03-07T16:34:06.777Z,4.68
2023-03-07T16:39:10.031Z,4.82
2023-03-07T16:44:16.386Z,4.68
2023-03-07T16:49:18.565Z,4.60
2023-03-07T16:54:20.258Z,4.40
2023-03-07T16:59:23.799Z,4.60
2023-03-07T17:04:25.444Z,4.85
2023-03-07T17:09:27.061Z,5.10
2023-03-07T17:14:28.692Z,4.28
2023-03-07T17:19:32.354Z,4.68
2023-03-07T17:24:33.969Z,4.68
2023-03-07T17:29:43.141Z,5.05
2023-03-07T17:34:44.766Z,3.55
2023-03-07T17:39:46.398Z,3.60
2023-03-07T17:44:48.019Z,2.42
2023-03-07T17:49:50.394Z,2.47
2023-03-07T17:54:52.301Z,1.85
2023-03-07T17:59:54.861Z,1.50
2023-03-07T18:04:56.529Z,2.08
2023-03-07T18:10:07.478Z,1.85
2023-03-07T18:15:15.709Z,1.20
2023-03-07T18:20:19.115Z,1.55
2023-03-07T18:25:20.918Z,1.73
2023-03-07T18:30:22.749Z,1.85
2023-03-07T18:35:24.502Z,1.80
2023-03-07T18:40:26.242Z,2.13
2023-03-07T18:45:28.454Z,1.83
2023-03-07T18:50:30.364Z,1.98
2023-03-07T18:55:35.307Z,2.28
2023-03-07T19:00:37.029Z,2.25
2023-03-07T19:05:45.239Z,2.25
2023-03-07T19:10:46.867Z,1.65
2023-03-07T19:15:48.562Z,2.00
2023-03-07T19:20:50.185Z,2.28
2023-03-07T19:25:51.865Z,2.05
2023-03-07T19:30:54.300Z,2.08
2023-03-07T19:36:02.916Z,2.28
2023-03-07T19:41:06.260Z,2.50
2023-03-07T19:46:09.830Z,2.22
2023-03-07T19:51:15.308Z,2.35
2023-03-07T19:56:31.816Z,2.30
2023-03-07T20:01:33.555Z,2.50
2023-03-07T20:06:35.482Z,2.85
2023-03-07T20:11:38.574Z,3.28
2023-03-07T20:16:40.767Z,3.17
2023-03-07T20:21:49.669Z,3.50
2023-03-07T20:26:51.308Z,3.67
2023-03-07T20:31:53.423Z,3.88
2023-03-07T20:36:55.071Z,3.30
2023-03-07T20:41:56.669Z,2.95
2023-03-07T20:46:58.274Z,3.00
2023-03-07T20:51:59.881Z,3.17
2023-03-07T20:57:01.563Z,3.03
2023-03-07T21:02:03.300Z,2.58
2023-03-07T21:07:05.373Z,2.72
2023-03-07T21:12:08.632Z,2.35
2023-03-07T21:17:12.678Z,3.25
2023-03-07T21:22:14.429Z,3.03
2023-03-07T21:27:16.014Z,2.15
2023-03-07T21:32:17.651Z,3.10
2023-03-07T21:37:20.642Z,3.58
2023-03-07T21:42:22.257Z,3.50
2023-03-07T21:47:23.850Z,3.40
2023-03-07T21:52:25.454Z,4.07
2023-03-07T21:57:29.562Z,3.83
2023-03-07T22:02:31.162Z,3.88
2023-03-07T22:07:32.836Z,3.67
2023-03-07T22:12:34.519Z,4.38
2023-03-07T22:17:36.276Z,4.43
2023-03-07T22:22:37.905Z,4.20
2023-03-07T22:27:39.494Z,4.57
2023-03-07T22:32:44.249Z,5.30
2023-03-07T22:37:45.899Z,5.75
2023-03-07T22:42:47.838Z,5.57
2023-03-07T22:47:49.433Z,5.65
2023-03-07T22:52:54.155Z,6.47
2023-03-07T22:57:55.857Z,6.38
2023-03-07T23:02:57.528Z,7.70
2023-03-07T23:08:00.334Z,7.13
2023-03-07T23:13:02.246Z,6.90
2023-03-07T23:18:04.011Z,6.63
2023-03-07T23:23:05.878Z,7.60
2023-03-07T23:28:08.264Z,7.95
2023-03-07T23:33:09.893Z,7.45
2023-03-07T23:38:15.041Z,5.63
2023-03-07T23:43:16.658Z,6.72
2023-03-07T23:48:18.301Z,5.20
2023-03-07T23:53:19.947Z,6.10
2023-03-07T23:58:21.569Z,4.55
